Current | Forecast
Updated: 6:00 AM JST on August 24, 2017
Observed at Naha City, Japan
Temperature 84°F
Humidity 79%
Dew Point 77°F
Wind SE at 4 mph
Pressure 29.89 in (Steady)
Conditions Partly Cloudy
Visibility 6.2 miles
UV 0 out of 16
Clouds (FEW) : 1500 ft
Yesterday's Maximum 91°F
Yesterday's Minimum 82°F approx.
Yesterday's Cooling Degree Days 22 approx.
Sunrise6:05 AM JST
Sunset6:57 PM JST
Moon Rise8:14 AM JST
Moon Set8:45 PM JST
Moon PhaseMoon Phase
Waxing Crescent
Raw METARMETAR ROAH 232100Z 14003KT 9999 FEW015 29/25 Q1012


Monday
. High: 78° F.
Tuesday
. High: 78° F.
Wednesday
. High: 77° F.
Thursday
. High: 77° F.
Friday
. High: 78° F.
Saturday
. High: 77° F.
Sunday
. High: 78° F.
Monday
. High: 78° F.

Units: English | Metric

Find the Weather for any City, State or Zipcode, or Country:

U.S. State List | Severe Weather | Tropical Storms | Ski Conditions
United States | Canada | Central America | South America | Asia | Europe | Australia | Africa | Islands

Weather Underground

© Copyright 2017
The Weather Company, LLC